Time;durP1;ratioP1;P1;durP2;ratioP2;P2;SDS_P1;SDS_P2;PMS_P1;PMS_P2;Temp;Humidity;BMP_temperature;BMP_pressure;BME280_temperature;BME280_humidity;BME280_pressure;Samples;Min_cycle;Max_cycle;Signal;HPM_P1;HPM_P2
2023/05/13 05:55:10;;;;;;;;;61.00;50.25;;;;;;;;6317500;22;46455;-70
2023/05/13 05:57:35;;;;;;;;;60.25;48.00;;;;;;;;6370588;22;45584;-70
2023/05/13 06:00:00;;;;;;;;;56.25;44.75;;;;;;;;6371343;22;45177;-70
2023/05/13 06:02:25;;;;;;;;;64.50;48.75;;;;;;;;6371911;22;45230;-70
2023/05/13 06:04:51;;;;;;;;;59.75;47.75;;;;;;;;6342528;22;46917;-71
2023/05/13 06:07:16;;;;;;;;;58.25;47.25;;;;;;;;6371928;22;45879;-71
2023/05/13 06:09:41;;;;;;;;;65.25;51.00;;;;;;;;6369757;22;45230;-69
2023/05/13 06:12:07;;;;;;;;;60.00;49.25;;;;;;;;6371518;22;45205;-70
2023/05/13 06:14:32;;;;;;;;;60.00;48.00;;;;;;;;6371580;22;44829;-69
2023/05/13 06:16:57;;;;;;;;;63.50;48.50;;;;;;;;6371859;22;45544;-70
2023/05/13 06:19:22;;;;;;;;;59.75;48.75;;;;;;;;6342736;22;45287;-70
2023/05/13 06:21:48;;;;;;;;;59.00;46.75;;;;;;;;6372087;22;45376;-69
2023/05/13 06:24:13;;;;;;;;;54.75;46.00;;;;;;;;6370698;22;45434;-69
2023/05/13 06:26:38;;;;;;;;;61.75;48.00;;;;;;;;6371722;22;45160;-71
2023/05/13 06:29:03;;;;;;;;;55.25;45.50;;;;;;;;6342134;22;45174;-70
2023/05/13 06:31:28;;;;;;;;;60.25;46.25;;;;;;;;6343151;22;45195;-71
2023/05/13 06:33:54;;;;;;;;;56.00;45.75;;;;;;;;6341743;22;45365;-70
2023/05/13 06:36:19;;;;;;;;;52.00;43.00;;;;;;;;6371213;22;45192;-69
2023/05/13 06:38:44;;;;;;;;;55.50;44.25;;;;;;;;6370546;22;45212;-70
2023/05/13 06:41:09;;;;;;;;;57.25;45.75;;;;;;;;6371815;22;45538;-69
2023/05/13 06:43:34;;;;;;;;;58.25;47.00;;;;;;;;6371031;22;45202;-70
2023/05/13 06:46:00;;;;;;;;;60.25;46.00;;;;;;;;6371581;22;45341;-70
2023/05/13 06:48:25;;;;;;;;;48.00;41.00;;;;;;;;6371718;22;45277;-71
2023/05/13 06:50:51;;;;;;;;;59.00;46.00;;;;;;;;6371821;22;45373;-71
2023/05/13 06:53:16;;;;;;;;;54.50;45.00;;;;;;;;6372066;22;45339;-72
2023/05/13 06:55:41;;;;;;;;;59.00;47.00;;;;;;;;6370071;22;46040;-72
2023/05/13 06:58:07;;;;;;;;;58.00;44.00;;;;;;;;6371368;22;45189;-71
2023/05/13 07:00:35;;;;;;;;;57.00;47.25;;;;;;;;6370738;22;45285;-72
2023/05/13 07:03:02;;;;;;;;;51.75;42.25;;;;;;;;6371403;22;45375;-71
2023/05/13 07:05:27;;;;;;;;;58.00;45.00;;;;;;;;6370784;22;45186;-70
2023/05/13 07:07:53;;;;;;;;;54.25;44.00;;;;;;;;6370172;22;45238;-70
2023/05/13 07:10:19;;;;;;;;;59.00;47.50;;;;;;;;6371021;22;45179;-71
2023/05/13 07:12:44;;;;;;;;;52.50;41.75;;;;;;;;6371106;22;45288;-72
2023/05/13 07:15:09;;;;;;;;;59.25;48.25;;;;;;;;6371197;22;46031;-69
2023/05/13 07:17:34;;;;;;;;;55.75;45.25;;;;;;;;6371397;22;45520;-69
2023/05/13 07:20:00;;;;;;;;;58.75;46.75;;;;;;;;6371279;22;45159;-69
2023/05/13 07:22:25;;;;;;;;;50.75;40.00;;;;;;;;6371626;22;45247;-70
2023/05/13 07:24:50;;;;;;;;;59.25;47.25;;;;;;;;6341943;22;46948;-69
2023/05/13 07:27:16;;;;;;;;;58.25;47.25;;;;;;;;6371657;22;45324;-71
2023/05/13 07:29:41;;;;;;;;;58.75;46.50;;;;;;;;6371017;22;45275;-70
2023/05/13 07:32:06;;;;;;;;;59.75;47.00;;;;;;;;6371372;22;45213;-71
2023/05/13 07:34:32;;;;;;;;;53.25;43.50;;;;;;;;6370965;22;45348;-71
2023/05/13 07:36:57;;;;;;;;;56.75;44.00;;;;;;;;6371380;22;45273;-73
2023/05/13 07:39:23;;;;;;;;;55.00;45.25;;;;;;;;6342185;22;45292;-71
2023/05/13 07:41:48;;;;;;;;;52.75;42.75;;;;;;;;6371440;22;45284;-73
2023/05/13 07:44:14;;;;;;;;;55.50;44.50;;;;;;;;6370153;22;45297;-72
2023/05/13 07:46:39;;;;;;;;;58.00;47.25;;;;;;;;6371357;22;45261;-73
2023/05/13 07:49:07;;;;;;;;;57.75;45.75;;;;;;;;6371102;22;45274;-72
2023/05/13 07:51:32;;;;;;;;;56.00;45.50;;;;;;;;6342866;22;46029;-72
2023/05/13 07:53:58;;;;;;;;;56.00;43.00;;;;;;;;6368518;22;45236;-72
2023/05/13 07:56:23;;;;;;;;;56.00;44.75;;;;;;;;6370546;22;45215;-72
2023/05/13 07:58:49;;;;;;;;;53.00;44.00;;;;;;;;6341756;22;45239;-73
2023/05/13 08:01:14;;;;;;;;;56.00;44.75;;;;;;;;6368552;22;45248;-72
2023/05/13 08:03:39;;;;;;;;;58.50;44.50;;;;;;;;6341394;22;45266;-72
2023/05/13 08:06:05;;;;;;;;;57.50;47.25;;;;;;;;6369272;22;45100;-73
2023/05/13 08:08:30;;;;;;;;;55.50;46.25;;;;;;;;6370916;22;45261;-72
2023/05/13 08:10:55;;;;;;;;;58.75;47.25;;;;;;;;6370430;22;45348;-72
2023/05/13 08:13:20;;;;;;;;;53.50;44.25;;;;;;;;6371643;22;45281;-72
2023/05/13 08:15:46;;;;;;;;;53.50;43.25;;;;;;;;6372160;22;45369;-72
2023/05/13 08:18:11;;;;;;;;;57.75;46.25;;;;;;;;6372721;22;45387;-72
2023/05/13 08:20:36;;;;;;;;;57.75;45.50;;;;;;;;6372096;22;45419;-72
2023/05/13 08:23:01;;;;;;;;;61.50;48.00;;;;;;;;6372307;22;45261;-72
2023/05/13 08:25:26;;;;;;;;;57.00;46.50;;;;;;;;6372178;22;45344;-73
2023/05/13 08:27:52;;;;;;;;;56.50;43.25;;;;;;;;6372387;22;45213;-73
2023/05/13 08:30:17;;;;;;;;;51.75;42.75;;;;;;;;6371926;22;45225;-73
2023/05/13 08:32:42;;;;;;;;;57.00;44.75;;;;;;;;6372327;22;45293;-73
2023/05/13 08:35:08;;;;;;;;;56.75;45.75;;;;;;;;6343453;22;45282;-73
2023/05/13 08:37:33;;;;;;;;;57.00;45.00;;;;;;;;6372377;22;45292;-73
2023/05/13 08:40:00;;;;;;;;;62.00;47.25;;;;;;;;6371646;22;45356;-73
2023/05/13 08:42:27;;;;;;;;;59.50;46.25;;;;;;;;6372005;22;45230;-72
2023/05/13 08:44:52;;;;;;;;;58.00;46.00;;;;;;;;6371912;22;45333;-73
2023/05/13 08:47:21;;;;;;;;;56.75;44.75;;;;;;;;6372127;22;45139;-73
2023/05/13 08:49:46;;;;;;;;;55.25;44.25;;;;;;;;6342967;22;46961;-73
2023/05/13 08:52:12;;;;;;;;;57.50;44.00;;;;;;;;6371950;22;45304;-72
2023/05/13 08:54:37;;;;;;;;;57.25;46.25;;;;;;;;6371063;22;45223;-73
2023/05/13 08:57:02;;;;;;;;;62.75;48.25;;;;;;;;6371377;22;45324;-74
2023/05/13 08:59:28;;;;;;;;;60.00;45.75;;;;;;;;6372101;22;45394;-76
2023/05/13 09:01:53;;;;;;;;;58.00;46.00;;;;;;;;6372207;22;45361;-73
2023/05/13 09:04:19;;;;;;;;;56.50;46.00;;;;;;;;6371903;22;45194;-72
2023/05/13 09:06:46;;;;;;;;;57.25;46.00;;;;;;;;6372459;22;45401;-72
2023/05/13 09:09:12;;;;;;;;;61.50;48.00;;;;;;;;6371167;22;45628;-72
2023/05/13 09:11:38;;;;;;;;;59.75;47.25;;;;;;;;6371056;22;45288;-71
2023/05/13 09:14:06;;;;;;;;;60.00;45.75;;;;;;;;6371557;22;45238;-71
2023/05/13 09:16:31;;;;;;;;;58.75;47.50;;;;;;;;6370739;22;45369;-71
2023/05/13 09:19:01;;;;;;;;;57.00;45.25;;;;;;;;6371088;22;45277;-72
2023/05/13 09:21:28;;;;;;;;;56.75;45.00;;;;;;;;6371419;22;45706;-72
2023/05/13 09:24:06;;;;;;;;;58.00;46.00;;;;;;;;6370056;22;45223;-72
2023/05/13 09:26:32;;;;;;;;;62.00;47.75;;;;;;;;6371881;22;45327;-71
2023/05/13 09:29:16;;;;;;;;;56.00;45.75;;;;;;;;6371100;22;45385;-72
2023/05/13 09:31:41;;;;;;;;;58.00;47.25;;;;;;;;6371386;22;45399;-72
2023/05/13 09:34:07;;;;;;;;;52.75;43.50;;;;;;;;6371978;22;45318;-72
2023/05/13 09:36:32;;;;;;;;;62.00;46.25;;;;;;;;6343145;22;45302;-71
2023/05/13 09:38:58;;;;;;;;;54.50;43.25;;;;;;;;6370957;22;45462;-72
2023/05/13 09:41:25;;;;;;;;;59.50;44.75;;;;;;;;6370592;22;46228;-72
2023/05/13 09:43:51;;;;;;;;;55.25;45.50;;;;;;;;6342072;22;45140;-72
2023/05/13 09:46:16;;;;;;;;;50.50;41.00;;;;;;;;6342852;22;45185;-72
2023/05/13 09:48:42;;;;;;;;;49.75;42.00;;;;;;;;6371395;22;45199;-72
2023/05/13 09:51:07;;;;;;;;;57.50;44.25;;;;;;;;6371621;22;46014;-72
2023/05/13 09:53:33;;;;;;;;;57.00;46.75;;;;;;;;6371079;22;45214;-72
2023/05/13 09:55:59;;;;;;;;;54.50;42.25;;;;;;;;6370360;22;45224;-73
2023/05/13 09:58:26;;;;;;;;;55.75;43.25;;;;;;;;6371288;22;45480;-72
2023/05/13 10:00:52;;;;;;;;;51.25;43.00;;;;;;;;6369317;22;45369;-72
2023/05/13 10:03:17;;;;;;;;;50.25;41.75;;;;;;;;6371376;22;45274;-72
2023/05/13 10:05:43;;;;;;;;;53.00;40.75;;;;;;;;6371300;22;45559;-72
2023/05/13 10:08:09;;;;;;;;;52.00;42.50;;;;;;;;6369731;22;45258;-72
2023/05/13 10:10:35;;;;;;;;;49.50;40.25;;;;;;;;6370700;22;45289;-72
2023/05/13 10:13:20;;;;;;;;;50.67;39.33;;;;;;;;6371283;22;45210;-72
2023/05/13 10:15:54;;;;;;;;;47.33;38.67;;;;;;;;6371120;22;45334;-73
2023/05/13 10:18:21;;;;;;;;;53.00;43.00;;;;;;;;6371278;22;45402;-72
2023/05/13 10:20:46;;;;;;;;;47.67;39.67;;;;;;;;6342119;22;46900;-72
2023/05/13 10:23:12;;;;;;;;;44.00;37.00;;;;;;;;6343713;22;45226;-72
2023/05/13 10:25:37;;;;;;;;;45.67;38.67;;;;;;;;6371494;22;45193;-72
2023/05/13 10:28:03;;;;;;;;;48.00;38.67;;;;;;;;6371696;22;45087;-72
2023/05/13 10:30:31;;;;;;;;;45.67;38.00;;;;;;;;6371436;22;45942;-72
2023/05/13 10:32:56;;;;;;;;;52.33;40.67;;;;;;;;6342785;22;45306;-72
2023/05/13 10:35:22;;;;;;;;;49.00;39.00;;;;;;;;6371196;22;45147;-72
2023/05/13 10:37:53;;;;;;;;;49.33;38.67;;;;;;;;6371366;22;45397;-72
2023/05/13 10:40:24;;;;;;;;;48.67;40.00;;;;;;;;6370834;22;46064;-72
2023/05/13 10:43:01;;;;;;;;;52.00;40.33;;;;;;;;6371456;22;45233;-72
2023/05/13 10:45:26;;;;;;;;;48.00;40.00;;;;;;;;6371178;22;45420;-72
2023/05/13 10:47:53;;;;;;;;;43.67;37.00;;;;;;;;6369678;22;45521;-73
2023/05/13 10:50:22;;;;;;;;;49.00;39.33;;;;;;;;6371017;22;45379;-73
2023/05/13 10:52:48;;;;;;;;;45.67;35.67;;;;;;;;6342382;22;45273;-72
2023/05/13 10:55:17;;;;;;;;;45.00;36.33;;;;;;;;6341385;22;45325;-72
2023/05/13 10:58:02;;;;;;;;;47.00;38.00;;;;;;;;6371246;22;45239;-72
2023/05/13 11:00:31;;;;;;;;;42.67;36.00;;;;;;;;6370506;22;46490;-73
2023/05/13 11:03:07;;;;;;;;;44.67;37.33;;;;;;;;6369332;22;45208;-72
2023/05/13 11:05:32;;;;;;;;;46.33;39.00;;;;;;;;6370920;22;45191;-72
2023/05/13 11:07:57;;;;;;;;;47.00;39.33;;;;;;;;6370852;22;45412;-71
2023/05/13 11:10:24;;;;;;;;;48.33;38.00;;;;;;;;6341422;22;48624;-71
2023/05/13 11:13:06;;;;;;;;;43.00;35.67;;;;;;;;6342128;22;45214;-71
2023/05/13 11:15:50;;;;;;;;;45.67;38.67;;;;;;;;6371033;22;45345;-71
2023/05/13 11:18:15;;;;;;;;;45.00;36.67;;;;;;;;6370736;22;45349;-71
2023/05/13 11:20:44;;;;;;;;;39.00;34.33;;;;;;;;6370710;22;45272;-75
2023/05/13 11:23:15;;;;;;;;;46.33;38.00;;;;;;;;6370770;22;45235;-71
2023/05/13 11:25:42;;;;;;;;;45.00;35.67;;;;;;;;6370216;22;45432;-72
2023/05/13 11:28:07;;;;;;;;;45.67;37.00;;;;;;;;6370874;22;45344;-71
2023/05/13 11:30:33;;;;;;;;;47.00;38.67;;;;;;;;6341677;22;47616;-71
2023/05/13 11:33:00;;;;;;;;;42.33;35.00;;;;;;;;6371140;22;45199;-71
2023/05/13 11:35:26;;;;;;;;;46.67;38.67;;;;;;;;6371296;22;45381;-71
2023/05/13 11:37:52;;;;;;;;;45.00;37.00;;;;;;;;6370657;22;45782;-71
2023/05/13 11:40:34;;;;;;;;;47.00;38.67;;;;;;;;6340009;22;47992;-72
2023/05/13 11:43:00;;;;;;;;;42.67;35.67;;;;;;;;6370957;22;45295;-72
2023/05/13 11:45:26;;;;;;;;;41.00;35.67;;;;;;;;6370535;22;45280;-72
2023/05/13 11:47:51;;;;;;;;;38.33;35.00;;;;;;;;6342471;22;45545;-71
2023/05/13 11:50:18;;;;;;;;;41.00;34.33;;;;;;;;6371691;22;46279;-71
2023/05/13 11:52:43;;;;;;;;;42.67;36.00;;;;;;;;6372255;22;45226;-71
2023/05/13 11:55:09;;;;;;;;;40.33;35.33;;;;;;;;6370209;22;45325;-71
2023/05/13 11:57:35;;;;;;;;;38.00;32.67;;;;;;;;6372009;22;45509;-72
2023/05/13 12:00:05;;;;;;;;;42.33;35.00;;;;;;;;6371156;22;45322;-72
2023/05/13 12:02:36;;;;;;;;;41.33;35.00;;;;;;;;6371560;22;45231;-71
2023/05/13 12:05:03;;;;;;;;;35.25;32.50;;;;;;;;6371420;22;45243;-71
2023/05/13 12:07:29;;;;;;;;;40.00;33.33;;;;;;;;6371900;22;45408;-72
2023/05/13 12:09:55;;;;;;;;;34.50;31.50;;;;;;;;6371499;22;45434;-71
2023/05/13 12:12:21;;;;;;;;;41.00;33.75;;;;;;;;6371918;22;45119;-72
2023/05/13 12:14:48;;;;;;;;;38.25;33.00;;;;;;;;6372175;22;45218;-72
2023/05/13 12:17:15;;;;;;;;;34.25;31.75;;;;;;;;6371387;22;45254;-72
2023/05/13 12:20:00;;;;;;;;;30.25;28.75;;;;;;;;6371665;22;45612;-71
2023/05/13 12:22:25;;;;;;;;;28.25;27.00;;;;;;;;6372286;22;45140;-72
2023/05/13 12:24:50;;;;;;;;;29.25;28.25;;;;;;;;6371716;22;45302;-73
2023/05/13 12:27:15;;;;;;;;;28.25;27.25;;;;;;;;6370859;22;45506;-73
2023/05/13 12:29:41;;;;;;;;;28.25;25.50;;;;;;;;6371226;22;45356;-73
2023/05/13 12:32:07;;;;;;;;;26.75;25.75;;;;;;;;6343123;22;45663;-72
2023/05/13 12:34:33;;;;;;;;;29.00;27.50;;;;;;;;6371738;22;45735;-71
2023/05/13 12:37:09;;;;;;;;;26.00;24.25;;;;;;;;6342831;22;45290;-72
2023/05/13 12:39:34;;;;;;;;;24.00;24.00;;;;;;;;6371036;22;45999;-73
2023/05/13 12:41:59;;;;;;;;;23.25;22.25;;;;;;;;6343033;22;45265;-73
2023/05/13 12:44:25;;;;;;;;;22.00;19.50;;;;;;;;6372561;22;45344;-73
2023/05/13 12:46:50;;;;;;;;;22.50;20.75;;;;;;;;6371919;22;45232;-72
2023/05/13 12:49:15;;;;;;;;;19.00;18.75;;;;;;;;6342985;22;46759;-72
2023/05/13 12:51:41;;;;;;;;;25.25;20.50;;;;;;;;6372125;22;45105;-72
2023/05/13 12:54:06;;;;;;;;;27.00;24.25;;;;;;;;6371958;22;45236;-72
2023/05/13 12:56:31;;;;;;;;;22.50;21.00;;;;;;;;6372450;22;45254;-72
2023/05/13 12:58:56;;;;;;;;;25.50;24.00;;;;;;;;6372224;22;45733;-72
2023/05/13 13:01:22;;;;;;;;;24.00;21.25;;;;;;;;6372741;22;45291;-72
2023/05/13 13:03:47;;;;;;;;;25.50;21.75;;;;;;;;6371516;22;45152;-72
2023/05/13 13:06:12;;;;;;;;;21.25;21.00;;;;;;;;6343374;22;46083;-72
2023/05/13 13:08:38;;;;;;;;;22.00;22.00;;;;;;;;6371459;22;46038;-72
2023/05/13 13:11:03;;;;;;;;;23.00;21.00;;;;;;;;6371616;22;45128;-72
2023/05/13 13:13:28;;;;;;;;;21.25;20.75;;;;;;;;6371879;22;45640;-72
2023/05/13 13:15:54;;;;;;;;;21.25;18.00;;;;;;;;6371556;22;45209;-73
2023/05/13 13:18:19;;;;;;;;;20.50;19.25;;;;;;;;6371066;22;46089;-73
2023/05/13 13:20:44;;;;;;;;;21.75;19.75;;;;;;;;6371644;22;45234;-72
2023/05/13 13:23:10;;;;;;;;;14.75;14.75;;;;;;;;6371971;22;45221;-72
2023/05/13 13:25:35;;;;;;;;;16.50;16.00;;;;;;;;6371196;22;45152;-72
2023/05/13 13:28:00;;;;;;;;;17.25;15.25;;;;;;;;6369574;22;45142;-75
2023/05/13 13:30:25;;;;;;;;;15.50;15.00;;;;;;;;6371129;22;45212;-72
2023/05/13 13:32:51;;;;;;;;;16.75;15.25;;;;;;;;6343342;22;45410;-72
2023/05/13 13:35:16;;;;;;;;;17.00;12.75;;;;;;;;6341238;22;45633;-73
2023/05/13 13:37:41;;;;;;;;;16.25;13.25;;;;;;;;6371524;22;45314;-74
2023/05/13 13:40:07;;;;;;;;;14.00;13.50;;;;;;;;6370173;22;45242;-73
2023/05/13 13:42:32;;;;;;;;;14.50;14.50;;;;;;;;6371862;22;45220;-73
2023/05/13 13:44:57;;;;;;;;;18.00;17.00;;;;;;;;6370830;22;45254;-72
2023/05/13 13:47:22;;;;;;;;;14.00;13.75;;;;;;;;6370786;22;46697;-71
2023/05/13 13:49:47;;;;;;;;;13.00;13.00;;;;;;;;6370271;22;45234;-72
2023/05/13 13:52:13;;;;;;;;;14.00;12.75;;;;;;;;6341967;22;45244;-71
2023/05/13 13:54:38;;;;;;;;;13.00;12.75;;;;;;;;6369945;22;45450;-71
2023/05/13 13:57:03;;;;;;;;;13.00;13.00;;;;;;;;6371079;22;45299;-71
2023/05/13 13:59:29;;;;;;;;;11.50;11.50;;;;;;;;6341880;22;45194;-71
2023/05/13 14:01:55;;;;;;;;;10.75;10.50;;;;;;;;6343110;22;45764;-71
2023/05/13 14:04:22;;;;;;;;;9.60;9.60;;;;;;;;6369483;22;45259;-71
2023/05/13 14:06:48;;;;;;;;;12.60;10.40;;;;;;;;6370647;22;46308;-71
2023/05/13 14:09:13;;;;;;;;;13.00;11.75;;;;;;;;6370878;22;45371;-71
2023/05/13 14:11:38;;;;;;;;;10.50;10.50;;;;;;;;6342469;22;45746;-71
2023/05/13 14:14:03;;;;;;;;;15.50;12.00;;;;;;;;6370889;22;45385;-71
2023/05/13 14:16:29;;;;;;;;;10.00;10.00;;;;;;;;6371115;22;45175;-71
2023/05/13 14:18:54;;;;;;;;;10.00;10.00;;;;;;;;6371166;22;45221;-73
2023/05/13 14:21:19;;;;;;;;;12.75;12.00;;;;;;;;6370599;22;45521;-72
2023/05/13 14:23:44;;;;;;;;;11.50;10.25;;;;;;;;6370581;22;45322;-71
2023/05/13 14:26:12;;;;;;;;;10.75;10.75;;;;;;;;6342305;22;47976;-73
2023/05/13 14:28:37;;;;;;;;;14.80;11.80;;;;;;;;6370458;22;45226;-72
2023/05/13 14:31:02;;;;;;;;;11.25;11.25;;;;;;;;6371494;22;45267;-73
2023/05/13 14:33:27;;;;;;;;;13.50;12.00;;;;;;;;6370756;22;45262;-73
2023/05/13 14:35:53;;;;;;;;;11.25;11.00;;;;;;;;6370998;22;46443;-73
2023/05/13 14:38:18;;;;;;;;;13.00;12.75;;;;;;;;6370453;22;45267;-73
2023/05/13 14:40:43;;;;;;;;;13.75;12.00;;;;;;;;6370759;22;45298;-73
2023/05/13 14:43:09;;;;;;;;;10.75;10.00;;;;;;;;6342673;22;45855;-73
2023/05/13 14:45:34;;;;;;;;;12.75;12.75;;;;;;;;6341343;22;47902;-72
2023/05/13 14:48:00;;;;;;;;;10.25;10.25;;;;;;;;6371085;22;45268;-73
2023/05/13 14:50:25;;;;;;;;;10.50;10.50;;;;;;;;6370583;22;45325;-73
2023/05/13 14:52:50;;;;;;;;;12.25;12.25;;;;;;;;6370882;22;45278;-73
2023/05/13 14:55:15;;;;;;;;;19.25;19.25;;;;;;;;6370044;22;45343;-73
2023/05/13 14:57:41;;;;;;;;;12.25;12.25;;;;;;;;6341882;22;45247;-73
2023/05/13 15:00:06;;;;;;;;;16.75;15.50;;;;;;;;6370114;22;45234;-72
2023/05/13 15:02:31;;;;;;;;;21.75;21.75;;;;;;;;6371126;22;45426;-73
2023/05/13 15:04:58;;;;;;;;;14.50;14.00;;;;;;;;6370498;22;45857;-72
2023/05/13 15:07:23;;;;;;;;;19.00;16.80;;;;;;;;6370733;22;45238;-73
2023/05/13 15:09:48;;;;;;;;;18.50;16.75;;;;;;;;6370182;22;45135;-73
2023/05/13 15:12:14;;;;;;;;;15.25;15.25;;;;;;;;6371086;22;45284;-73
2023/05/13 15:14:39;;;;;;;;;19.00;18.00;;;;;;;;6370453;22;45089;-73
2023/05/13 15:17:04;;;;;;;;;13.50;13.50;;;;;;;;6371120;22;45263;-73
2023/05/13 15:19:30;;;;;;;;;16.75;15.50;;;;;;;;6370950;22;45175;-73
2023/05/13 15:21:55;;;;;;;;;14.00;11.25;;;;;;;;6342172;22;45446;-73
2023/05/13 15:24:20;;;;;;;;;19.25;14.50;;;;;;;;6371914;22;46539;-73
2023/05/13 15:26:47;;;;;;;;;24.25;23.00;;;;;;;;6343059;22;45179;-72
2023/05/13 15:29:12;;;;;;;;;12.00;12.00;;;;;;;;6372351;22;45246;-72
2023/05/13 15:31:37;;;;;;;;;17.00;15.75;;;;;;;;6343703;22;45808;-72
2023/05/13 15:34:02;;;;;;;;;19.00;14.50;;;;;;;;6372478;22;45237;-72
2023/05/13 15:36:28;;;;;;;;;34.25;28.75;;;;;;;;6372788;22;45294;-72
2023/05/13 15:38:53;;;;;;;;;18.50;15.75;;;;;;;;6344084;22;45265;-72
2023/05/13 15:41:18;;;;;;;;;17.00;15.50;;;;;;;;6372352;22;45234;-72
2023/05/13 15:43:43;;;;;;;;;18.50;16.75;;;;;;;;6371974;22;46083;-72
2023/05/13 15:46:08;;;;;;;;;19.25;19.25;;;;;;;;6372214;22;45230;-73
2023/05/13 15:48:34;;;;;;;;;19.25;19.25;;;;;;;;6372380;22;45287;-74
2023/05/13 15:50:59;;;;;;;;;22.75;22.75;;;;;;;;6372285;22;45294;-73
2023/05/13 15:53:24;;;;;;;;;16.75;16.25;;;;;;;;6372278;22;45238;-73
2023/05/13 15:55:50;;;;;;;;;20.75;19.50;;;;;;;;6370999;22;45219;-72
2023/05/13 15:58:15;;;;;;;;;17.50;17.25;;;;;;;;6372303;22;45242;-72
2023/05/13 16:00:40;;;;;;;;;20.50;19.00;;;;;;;;6372081;22;45642;-72
2023/05/13 16:03:06;;;;;;;;;16.50;15.75;;;;;;;;6371951;22;46373;-73
2023/05/13 16:05:31;;;;;;;;;20.00;20.00;;;;;;;;6371708;22;45275;-74
2023/05/13 16:07:56;;;;;;;;;23.25;19.50;;;;;;;;6371969;22;45171;-74
2023/05/13 16:10:21;;;;;;;;;19.25;17.75;;;;;;;;6342018;22;45957;-75
2023/05/13 16:12:47;;;;;;;;;25.75;21.75;;;;;;;;6371761;22;46059;-75
2023/05/13 16:15:12;;;;;;;;;20.00;18.00;;;;;;;;6371447;22;45183;-75
2023/05/13 16:17:37;;;;;;;;;29.67;25.00;;;;;;;;6372294;22;45084;-74
2023/05/13 16:20:03;;;;;;;;;21.25;19.50;;;;;;;;6371492;22;45351;-75
2023/05/13 16:22:29;;;;;;;;;29.25;25.75;;;;;;;;6372166;22;46035;-77
2023/05/13 16:25:05;;;;;;;;;19.50;19.50;;;;;;;;6342184;22;45293;-75
2023/05/13 16:27:30;;;;;;;;;29.00;24.00;;;;;;;;6371692;22;45154;-75
2023/05/13 16:29:56;;;;;;;;;20.75;19.25;;;;;;;;6371307;22;45221;-76
2023/05/13 16:32:22;;;;;;;;;21.50;19.00;;;;;;;;6343361;22;47902;-76
2023/05/13 16:34:47;;;;;;;;;24.50;20.25;;;;;;;;6371614;22;45638;-76
2023/05/13 16:37:12;;;;;;;;;16.00;15.00;;;;;;;;6372438;22;45309;-76
2023/05/13 16:39:37;;;;;;;;;21.50;21.50;;;;;;;;6342442;22;45462;-76
2023/05/13 16:42:03;;;;;;;;;29.00;24.33;;;;;;;;6371990;22;46283;-76
2023/05/13 16:44:28;;;;;;;;;24.00;21.75;;;;;;;;6371653;22;45232;-76
2023/05/13 16:46:53;;;;;;;;;23.00;21.00;;;;;;;;6343390;22;45277;-76
2023/05/13 16:49:18;;;;;;;;;21.00;19.00;;;;;;;;6371612;22;45504;-75
2023/05/13 16:51:43;;;;;;;;;16.75;14.50;;;;;;;;6371975;22;45439;-75
2023/05/13 16:54:09;;;;;;;;;11.50;9.50;;;;;;;;6341899;22;45374;-75
2023/05/13 16:56:35;;;;;;;;;15.00;13.00;;;;;;;;6371207;22;45237;-75
2023/05/13 16:59:00;;;;;;;;;11.50;11.50;;;;;;;;6371706;22;45559;-75
2023/05/13 17:01:25;;;;;;;;;11.67;11.67;;;;;;;;6372072;22;46205;-75
2023/05/13 17:03:51;;;;;;;;;15.33;13.00;;;;;;;;6371814;22;45275;-75
2023/05/13 17:06:16;;;;;;;;;14.00;13.00;;;;;;;;6371821;22;45304;-75
2023/05/13 17:08:41;;;;;;;;;15.00;12.67;;;;;;;;6371065;22;45352;-76
2023/05/13 17:13:42;;;;;;;;;13.00;12.00;;;;;;;;6344109;22;45431;-75
2023/05/13 17:16:08;;;;;;;;;11.67;11.67;;;;;;;;6371476;22;45344;-74
2023/05/13 17:18:33;;;;;;;;;12.33;12.33;;;;;;;;6372204;22;45276;-75
2023/05/13 17:21:02;;;;;;;;;10.00;10.00;;;;;;;;6344408;22;45608;-73
2023/05/13 17:23:31;;;;;;;;;15.00;12.67;;;;;;;;6342677;22;45258;-73
2023/05/13 17:25:56;;;;;;;;;16.00;14.00;;;;;;;;6373142;22;45327;-74
2023/05/13 17:28:21;;;;;;;;;22.33;15.33;;;;;;;;6372157;22;45321;-74
2023/05/13 17:30:47;;;;;;;;;15.00;13.67;;;;;;;;6343963;22;46986;-74
2023/05/13 17:33:12;;;;;;;;;17.33;14.67;;;;;;;;6372512;22;45324;-74
2023/05/13 17:35:37;;;;;;;;;14.00;13.33;;;;;;;;6373003;22;45205;-74
2023/05/13 17:38:02;;;;;;;;;15.00;14.33;;;;;;;;6372379;22;45295;-73
2023/05/13 17:40:27;;;;;;;;;19.33;19.00;;;;;;;;6372731;22;46528;-74
2023/05/13 17:42:53;;;;;;;;;19.67;19.67;;;;;;;;6371771;22;45199;-73
2023/05/13 17:45:18;;;;;;;;;16.33;15.33;;;;;;;;6372660;22;45232;-74
2023/05/13 17:47:43;;;;;;;;;32.67;30.67;;;;;;;;6372082;22;45245;-74
2023/05/13 17:50:09;;;;;;;;;12.67;12.67;;;;;;;;6372559;22;45345;-75
2023/05/13 17:52:34;;;;;;;;;14.67;14.33;;;;;;;;6372248;22;45334;-75
2023/05/13 17:54:59;;;;;;;;;13.33;13.33;;;;;;;;6372942;22;45228;-74
2023/05/13 17:57:24;;;;;;;;;14.67;14.67;;;;;;;;6372067;22;45269;-74
2023/05/13 17:59:51;;;;;;;;;10.33;9.00;;;;;;;;6372758;22;45400;-74
2023/05/13 18:02:16;;;;;;;;;14.33;13.00;;;;;;;;6372047;22;45238;-74
2023/05/13 18:04:41;;;;;;;;;14.00;12.33;;;;;;;;6372588;22;45411;-74
2023/05/13 18:07:06;;;;;;;;;19.33;17.33;;;;;;;;6372164;22;45603;-74
2023/05/13 18:09:31;;;;;;;;;15.67;15.67;;;;;;;;6372738;22;46297;-73
2023/05/13 18:11:57;;;;;;;;;39.33;35.67;;;;;;;;6372036;22;45202;-73
2023/05/13 18:14:22;;;;;;;;;15.33;14.33;;;;;;;;6337936;22;45394;-74
2023/05/13 18:16:47;;;;;;;;;14.67;13.67;;;;;;;;6340318;22;45550;-75
2023/05/13 18:19:12;;;;;;;;;15.00;15.00;;;;;;;;6338216;22;46779;-74
2023/05/13 18:21:37;;;;;;;;;16.00;15.67;;;;;;;;6338131;22;45315;-74
2023/05/13 18:24:03;;;;;;;;;17.33;16.67;;;;;;;;6340563;22;45136;-74
2023/05/13 18:26:28;;;;;;;;;17.67;17.67;;;;;;;;6337203;22;45547;-76
2023/05/13 18:28:53;;;;;;;;;16.33;15.33;;;;;;;;6339842;22;45493;-74
2023/05/13 18:31:18;;;;;;;;;19.00;18.00;;;;;;;;6340642;22;45375;-75
2023/05/13 18:33:44;;;;;;;;;14.00;14.00;;;;;;;;6338508;22;45184;-75
2023/05/13 18:36:09;;;;;;;;;19.00;17.67;;;;;;;;6338509;22;45761;-73
2023/05/13 18:38:34;;;;;;;;;17.00;16.67;;;;;;;;6340154;22;46297;-74
2023/05/13 18:41:02;;;;;;;;;16.00;14.67;;;;;;;;6338515;22;45243;-74
2023/05/13 18:43:27;;;;;;;;;15.67;14.00;;;;;;;;6339830;22;45298;-73
2023/05/13 18:45:52;;;;;;;;;18.67;18.00;;;;;;;;6337900;22;47335;-73
2023/05/13 18:48:18;;;;;;;;;14.33;14.33;;;;;;;;6339865;22;46008;-73
2023/05/13 18:50:43;;;;;;;;;18.33;17.00;;;;;;;;6340341;22;45186;-73
2023/05/13 18:53:08;;;;;;;;;18.67;17.33;;;;;;;;6340221;22;45566;-74
2023/05/13 18:55:33;;;;;;;;;19.33;17.00;;;;;;;;6340363;22;45260;-74
2023/05/13 18:57:58;;;;;;;;;15.00;13.33;;;;;;;;6339663;22;46511;-73
2023/05/13 19:00:24;;;;;;;;;17.00;17.00;;;;;;;;6338369;22;45254;-74
2023/05/13 19:02:49;;;;;;;;;16.67;15.33;;;;;;;;6340871;22;45262;-74
2023/05/13 19:05:14;;;;;;;;;16.67;16.00;;;;;;;;6338445;22;46113;-74
2023/05/13 19:07:40;;;;;;;;;20.67;17.00;;;;;;;;6340139;22;46110;-75
2023/05/13 19:10:05;;;;;;;;;19.67;17.00;;;;;;;;6340333;22;45210;-74
2023/05/13 19:12:30;;;;;;;;;14.67;13.67;;;;;;;;6346477;22;45293;-75
2023/05/13 19:14:56;;;;;;;;;17.67;17.67;;;;;;;;6372328;22;45421;-74
2023/05/13 19:17:21;;;;;;;;;18.33;16.67;;;;;;;;6372272;22;45358;-76
2023/05/13 19:19:46;;;;;;;;;17.67;16.33;;;;;;;;6372153;22;45160;-75
2023/05/13 19:22:11;;;;;;;;;15.67;15.67;;;;;;;;6371915;22;45642;-74
2023/05/13 19:24:36;;;;;;;;;18.67;18.67;;;;;;;;6371833;22;45169;-74
2023/05/13 19:27:02;;;;;;;;;16.00;13.67;;;;;;;;6371078;22;45193;-74
2023/05/13 19:29:27;;;;;;;;;16.67;16.67;;;;;;;;6343177;22;45231;-74
2023/05/13 19:31:52;;;;;;;;;19.33;17.33;;;;;;;;6342632;22;45207;-74
2023/05/13 19:34:17;;;;;;;;;18.00;16.00;;;;;;;;6342977;22;45898;-74
2023/05/13 19:36:43;;;;;;;;;22.67;18.67;;;;;;;;6371405;22;45253;-76
2023/05/13 19:39:09;;;;;;;;;16.33;15.33;;;;;;;;6371519;22;45236;-76
2023/05/13 19:41:34;;;;;;;;;20.33;15.33;;;;;;;;6342786;22;45168;-75
2023/05/13 19:44:00;;;;;;;;;19.67;16.67;;;;;;;;6342457;22;45425;-75
2023/05/13 19:46:25;;;;;;;;;23.67;22.33;;;;;;;;6342657;22;47053;-72
2023/05/13 19:48:50;;;;;;;;;32.33;29.67;;;;;;;;6371355;22;45191;-71
2023/05/13 19:51:16;;;;;;;;;30.67;27.33;;;;;;;;6371839;22;45179;-72
2023/05/13 19:53:42;;;;;;;;;31.00;30.00;;;;;;;;6370636;22;45267;-71
2023/05/13 19:56:07;;;;;;;;;57.50;46.00;;;;;;;;6371158;22;45739;-71
2023/05/13 19:58:32;;;;;;;;;38.00;33.25;;;;;;;;6370575;22;45233;-71
2023/05/13 20:00:58;;;;;;;;;35.33;32.00;;;;;;;;6343303;22;45313;-71
2023/05/13 20:03:23;;;;;;;;;54.75;44.75;;;;;;;;6370938;22;45266;-72
2023/05/13 20:05:49;;;;;;;;;38.33;32.67;;;;;;;;6371446;22;45242;-71